createdAt,value
2022-12-24T00:01:06.559Z,62.71
2022-12-24T00:03:34.282Z,62.28
2022-12-24T00:06:04.905Z,62.89
2022-12-24T00:08:31.852Z,62.33
2022-12-24T00:11:00.120Z,62.64
2022-12-24T00:13:27.163Z,62.65
2022-12-24T00:15:54.065Z,62.74
2022-12-24T00:18:20.978Z,62.58
2022-12-24T00:20:49.274Z,62.80
2022-12-24T00:23:17.234Z,62.74
2022-12-24T00:25:45.447Z,62.58
2022-12-24T00:28:15.295Z,62.57
2022-12-24T00:30:43.424Z,62.62
2022-12-24T00:33:10.723Z,62.80
2022-12-24T00:35:40.296Z,62.67
2022-12-24T00:38:08.486Z,62.57
2022-12-24T00:40:36.055Z,62.72
2022-12-24T00:43:03.403Z,62.51
2022-12-24T00:45:31.609Z,62.38
2022-12-24T00:47:58.646Z,62.28
2022-12-24T00:50:25.545Z,62.58
2022-12-24T00:52:52.415Z,62.66
2022-12-24T00:55:20.041Z,62.54
2022-12-24T00:57:47.003Z,62.52
2022-12-24T01:00:17.385Z,62.38
2022-12-24T01:02:46.005Z,62.47
2022-12-24T01:05:13.364Z,62.40
2022-12-24T01:07:44.726Z,62.28
2022-12-24T01:10:14.405Z,62.52
2022-12-24T01:12:41.432Z,62.74
2022-12-24T01:15:11.864Z,62.40
2022-12-24T01:17:39.654Z,62.79
2022-12-24T01:20:14.555Z,62.56
2022-12-24T01:22:41.824Z,62.57
2022-12-24T01:25:09.765Z,62.24
2022-12-24T01:27:36.909Z,62.32
2022-12-24T01:30:05.470Z,62.50
2022-12-24T01:32:32.372Z,62.14
2022-12-24T01:34:59.859Z,62.34
2022-12-24T01:37:28.142Z,62.23
2022-12-24T01:40:15.026Z,62.06
2022-12-24T01:43:06.638Z,61.96
2022-12-24T01:45:55.935Z,62.02
2022-12-24T01:48:34.762Z,62.07
2022-12-24T01:51:08.993Z,62.03
2022-12-24T01:53:42.522Z,62.39
2022-12-24T01:56:11.614Z,62.40
2022-12-24T01:58:43.346Z,62.17
2022-12-24T02:01:10.486Z,62.47
2022-12-24T02:03:37.835Z,62.28
2022-12-24T02:06:06.341Z,62.49
2022-12-24T02:08:40.022Z,62.16
2022-12-24T02:11:14.794Z,61.79
2022-12-24T02:13:45.050Z,61.86
2022-12-24T02:16:32.412Z,62.36
2022-12-24T02:19:21.635Z,62.21
2022-12-24T02:21:59.717Z,61.98
2022-12-24T02:25:04.866Z,62.45
2022-12-24T02:27:54.487Z,62.28
2022-12-24T02:30:28.075Z,62.32
2022-12-24T02:33:20.347Z,62.37
2022-12-24T02:35:56.012Z,62.34
2022-12-24T02:38:30.914Z,62.12
2022-12-24T02:41:03.811Z,62.23
2022-12-24T02:43:38.380Z,62.32
2022-12-24T02:46:13.716Z,61.76
2022-12-24T02:48:44.415Z,62.17
2022-12-24T02:51:12.168Z,62.05
2022-12-24T02:53:40.303Z,61.91
2022-12-24T02:56:34.739Z,61.96
2022-12-24T02:59:28.650Z,62.23
2022-12-24T03:02:11.663Z,62.22
2022-12-24T03:04:55.263Z,62.16
2022-12-24T03:07:29.524Z,62.08
2022-12-24T03:10:12.120Z,62.32
2022-12-24T03:12:44.942Z,62.33
2022-12-24T03:15:17.355Z,62.68
2022-12-24T03:17:49.798Z,62.77
2022-12-24T03:20:25.562Z,62.90
2022-12-24T03:22:52.885Z,62.67
2022-12-24T03:25:24.066Z,63.12
2022-12-24T03:27:52.028Z,62.86
2022-12-24T03:30:20.120Z,62.78
2022-12-24T03:32:48.370Z,63.09
2022-12-24T03:35:15.371Z,62.51
2022-12-24T03:37:42.296Z,62.76
2022-12-24T03:40:10.439Z,63.06
2022-12-24T03:42:37.619Z,62.82
2022-12-24T03:45:05.945Z,62.66
2022-12-24T03:47:32.813Z,62.81
2022-12-24T03:50:01.147Z,62.81
2022-12-24T03:52:28.530Z,62.33
2022-12-24T03:54:55.415Z,62.36
2022-12-24T03:57:22.309Z,62.02
2022-12-24T03:59:49.249Z,61.96
2022-12-24T04:02:16.707Z,61.95
2022-12-24T04:04:43.782Z,62.02
2022-12-24T04:07:12.083Z,61.75
2022-12-24T04:09:40.488Z,62.37
2022-12-24T04:12:08.069Z,62.34
2022-12-24T04:14:34.965Z,62.53
2022-12-24T04:17:01.924Z,62.49
2022-12-24T04:19:29.257Z,62.35
2022-12-24T04:21:56.250Z,62.24
2022-12-24T04:24:24.624Z,62.13
2022-12-24T04:26:51.604Z,62.27
2022-12-24T04:29:18.460Z,62.16
2022-12-24T04:31:45.439Z,62.38
2022-12-24T04:34:12.345Z,62.13
2022-12-24T04:36:39.188Z,62.17
2022-12-24T04:39:06.055Z,62.11
2022-12-24T04:41:34.509Z,61.99
2022-12-24T04:44:01.387Z,62.06
2022-12-24T04:46:32.500Z,61.79
2022-12-24T04:49:00.628Z,61.98
2022-12-24T04:51:28.856Z,62.03
2022-12-24T04:53:57.149Z,61.63
2022-12-24T04:56:26.865Z,62.02
2022-12-24T04:58:55.989Z,62.18
2022-12-24T05:01:26.823Z,62.29
2022-12-24T05:03:55.314Z,62.26
2022-12-24T05:06:25.084Z,62.34
2022-12-24T05:08:55.669Z,62.30
2022-12-24T05:11:23.334Z,62.15
2022-12-24T05:13:50.636Z,62.06
2022-12-24T05:16:22.125Z,61.94
2022-12-24T05:18:49.404Z,62.04
2022-12-24T05:21:19.875Z,61.86
2022-12-24T05:24:05.143Z,62.00
2022-12-24T05:26:36.959Z,61.89
2022-12-24T05:29:05.837Z,62.14
2022-12-24T05:31:34.477Z,62.09
2022-12-24T05:34:03.095Z,62.19
2022-12-24T05:36:30.712Z,62.13
2022-12-24T05:38:58.005Z,62.27
2022-12-24T05:41:25.963Z,62.35
2022-12-24T05:43:52.909Z,62.17
2022-12-24T05:46:23.279Z,62.27
2022-12-24T05:48:52.967Z,62.21
2022-12-24T05:51:22.426Z,62.14
2022-12-24T05:53:50.872Z,62.08
2022-12-24T05:56:20.939Z,62.22
2022-12-24T05:58:48.182Z,62.42
2022-12-24T06:01:16.151Z,62.36
2022-12-24T06:03:43.185Z,62.50
2022-12-24T06:06:14.588Z,62.48
2022-12-24T06:08:42.591Z,62.65
2022-12-24T06:11:13.148Z,62.67
2022-12-24T06:13:41.930Z,62.76
2022-12-24T06:16:12.017Z,62.89
2022-12-24T06:18:39.438Z,62.75
2022-12-24T06:21:07.543Z,62.80
2022-12-24T06:23:39.624Z,62.76
2022-12-24T06:26:08.020Z,62.71
2022-12-24T06:28:37.681Z,62.82
2022-12-24T06:31:07.141Z,63.12
2022-12-24T06:33:34.709Z,62.58
2022-12-24T06:36:02.069Z,62.97
2022-12-24T06:38:31.129Z,62.70
2022-12-24T06:41:00.045Z,63.04
2022-12-24T06:43:26.920Z,62.81
2022-12-24T06:45:53.793Z,62.83
2022-12-24T06:48:20.651Z,62.58
2022-12-24T06:50:47.749Z,62.64
2022-12-24T06:53:14.635Z,62.74
2022-12-24T06:55:41.647Z,62.77
2022-12-24T06:58:09.957Z,62.75
2022-12-24T07:00:36.985Z,62.57
2022-12-24T07:03:04.244Z,62.72
2022-12-24T07:05:31.178Z,62.66
2022-12-24T07:07:58.038Z,62.76
2022-12-24T07:10:24.988Z,62.59
2022-12-24T07:12:51.882Z,62.49
2022-12-24T07:15:20.241Z,62.76
2022-12-24T07:17:47.176Z,62.96
2022-12-24T07:20:15.285Z,62.71
2022-12-24T07:22:42.792Z,62.98
2022-12-24T07:25:11.432Z,62.75
2022-12-24T07:27:39.195Z,62.74
2022-12-24T07:30:08.696Z,62.53
2022-12-24T07:32:36.916Z,62.28
2022-12-24T07:35:04.596Z,62.14
2022-12-24T07:37:31.473Z,62.16
2022-12-24T07:39:58.361Z,62.26
2022-12-24T07:42:26.519Z,61.90
2022-12-24T07:44:53.429Z,61.86
2022-12-24T07:47:20.272Z,61.96
2022-12-24T07:49:48.491Z,61.89
2022-12-24T07:52:16.094Z,61.96
2022-12-24T07:54:43.004Z,61.78
2022-12-24T07:57:10.063Z,61.78
2022-12-24T07:59:36.967Z,61.96
2022-12-24T08:02:04.102Z,61.80
2022-12-24T08:04:32.307Z,61.94
2022-12-24T08:07:00.520Z,61.68
2022-12-24T08:09:27.404Z,61.58
2022-12-24T08:11:54.244Z,61.44
2022-12-24T08:14:21.329Z,61.72
2022-12-24T08:16:48.244Z,62.02
2022-12-24T08:19:16.544Z,61.67
2022-12-24T08:21:43.451Z,61.57
2022-12-24T08:24:11.682Z,61.40
2022-12-24T08:26:38.692Z,61.48
2022-12-24T08:29:06.855Z,61.33
2022-12-24T08:31:36.467Z,61.45
2022-12-24T08:34:04.095Z,61.41
2022-12-24T08:36:31.045Z,61.51
2022-12-24T08:38:58.180Z,61.43
2022-12-24T08:41:26.492Z,61.39
2022-12-24T08:43:53.364Z,61.63
2022-12-24T08:46:20.272Z,61.45
2022-12-24T08:48:47.454Z,61.17
2022-12-24T08:51:14.426Z,61.27
2022-12-24T08:53:41.571Z,61.37
2022-12-24T08:56:10.297Z,61.32
2022-12-24T08:58:38.946Z,61.52
2022-12-24T09:01:13.773Z,61.37
2022-12-24T09:03:41.649Z,61.32
2022-12-24T09:06:09.966Z,61.27
2022-12-24T09:08:37.967Z,61.33
2022-12-24T09:11:06.683Z,61.19
2022-12-24T09:13:34.128Z,61.30
2022-12-24T09:16:03.387Z,61.16
2022-12-24T09:18:31.317Z,61.24
2022-12-24T09:21:02.810Z,61.26
2022-12-24T09:23:30.773Z,61.25
2022-12-24T09:25:57.994Z,61.06
2022-12-24T09:28:25.049Z,61.03
2022-12-24T09:30:58.145Z,61.18
2022-12-24T09:33:27.553Z,60.87
2022-12-24T09:35:54.924Z,61.02
2022-12-24T09:38:22.906Z,60.99
2022-12-24T09:40:51.962Z,61.08
2022-12-24T09:43:21.737Z,60.96
2022-12-24T09:46:06.324Z,60.70
2022-12-24T09:48:39.652Z,60.66
2022-12-24T09:51:10.375Z,60.40
2022-12-24T09:53:43.714Z,60.56
2022-12-24T09:56:17.277Z,60.81
2022-12-24T09:58:48.689Z,60.66
2022-12-24T10:01:18.203Z,60.45
2022-12-24T10:03:47.417Z,60.11
2022-12-24T10:06:26.831Z,59.96
2022-12-24T10:09:15.630Z,59.76
2022-12-24T10:11:53.911Z,59.81
2022-12-24T10:14:38.505Z,59.07
2022-12-24T10:17:27.531Z,58.57
2022-12-24T10:20:13.133Z,58.44
2022-12-24T10:22:59.133Z,58.19
2022-12-24T10:25:33.993Z,58.24
2022-12-24T10:28:03.739Z,57.96
2022-12-24T10:30:30.652Z,58.04
2022-12-24T10:32:57.590Z,57.71
2022-12-24T10:35:32.222Z,57.64
2022-12-24T10:37:59.137Z,57.66
2022-12-24T10:40:35.779Z,57.51
2022-12-24T10:43:13.620Z,57.37
2022-12-24T10:45:46.411Z,57.47
2022-12-24T10:48:25.574Z,57.35
2022-12-24T10:51:02.715Z,57.97
2022-12-24T10:53:41.682Z,57.45
2022-12-24T10:56:13.649Z,57.36
2022-12-24T10:58:45.438Z,57.37
2022-12-24T11:01:13.695Z,57.02
2022-12-24T11:03:42.339Z,57.15
2022-12-24T11:06:13.310Z,57.26
2022-12-24T11:08:44.222Z,56.94
2022-12-24T11:11:16.390Z,57.53
2022-12-24T11:13:52.301Z,57.02
2022-12-24T11:16:26.445Z,57.01
2022-12-24T11:18:57.549Z,57.15
2022-12-24T11:21:29.696Z,57.32
2022-12-24T11:23:59.886Z,57.45
2022-12-24T11:26:30.520Z,57.18
2022-12-24T11:29:16.857Z,57.03
2022-12-24T11:31:46.030Z,57.09
2022-12-24T11:34:26.127Z,56.92
2022-12-24T11:37:14.136Z,56.95
2022-12-24T11:39:47.271Z,56.83
2022-12-24T11:42:30.993Z,56.98
2022-12-24T11:45:02.229Z,56.01
2022-12-24T11:47:35.437Z,56.15
2022-12-24T11:50:25.579Z,55.82
2022-12-24T11:53:04.894Z,54.99
2022-12-24T11:55:44.517Z,55.29
2022-12-24T11:58:25.741Z,55.46
2022-12-24T12:01:02.837Z,55.55
2022-12-24T12:03:38.212Z,55.51
2022-12-24T12:06:23.832Z,55.36
2022-12-24T12:08:58.947Z,55.73
2022-12-24T12:11:28.856Z,55.77
2022-12-24T12:13:59.953Z,55.65
2022-12-24T12:16:55.357Z,55.81
2022-12-24T12:19:25.713Z,55.70
2022-12-24T12:21:52.798Z,55.97
2022-12-24T12:24:32.293Z,56.16
2022-12-24T12:27:12.855Z,55.99
2022-12-24T12:29:46.959Z,56.20
2022-12-24T12:32:26.025Z,56.86
2022-12-24T12:35:04.031Z,56.83
2022-12-24T12:37:38.136Z,57.10
2022-12-24T12:40:15.205Z,57.10
2022-12-24T12:42:57.870Z,57.16
2022-12-24T12:45:43.701Z,57.72
2022-12-24T12:48:33.946Z,57.33
2022-12-24T12:51:10.947Z,57.40
2022-12-24T12:53:59.166Z,57.69
2022-12-24T12:56:33.103Z,57.59
2022-12-24T12:59:08.150Z,57.42
2022-12-24T13:01:46.828Z,57.47
2022-12-24T13:05:00.634Z,57.48
2022-12-24T13:08:04.614Z,57.08
2022-12-24T13:11:00.572Z,57.51
2022-12-24T13:13:53.918Z,57.17
2022-12-24T13:16:46.888Z,57.36
2022-12-24T13:19:47.081Z,57.41
2022-12-24T13:22:17.597Z,57.45
2022-12-24T13:24:52.046Z,57.31
2022-12-24T13:27:24.942Z,57.13
2022-12-24T13:30:06.949Z,56.82
2022-12-24T13:32:55.124Z,56.70
2022-12-24T13:35:38.725Z,56.58
2022-12-24T13:38:43.381Z,56.73
2022-12-24T13:41:58.415Z,56.81
2022-12-24T13:44:32.650Z,56.56
2022-12-24T13:47:25.441Z,56.72
2022-12-24T13:49:58.763Z,56.17
2022-12-24T13:52:30.797Z,56.61
2022-12-24T13:55:14.686Z,56.19
2022-12-24T13:57:52.261Z,56.28
2022-12-24T14:00:34.534Z,56.54
2022-12-24T14:03:31.333Z,57.02
2022-12-24T14:06:02.678Z,56.77
2022-12-24T14:08:37.535Z,56.82
2022-12-24T14:11:12.536Z,56.92
2022-12-24T14:14:12.131Z,56.54
2022-12-24T14:16:47.602Z,56.50
2022-12-24T14:19:21.278Z,56.55
2022-12-24T14:21:57.903Z,56.86
2022-12-24T14:24:30.892Z,56.14
2022-12-24T14:27:06.346Z,56.50
2022-12-24T14:29:42.655Z,56.18
2022-12-24T14:32:16.089Z,56.51
2022-12-24T14:34:44.646Z,56.20
2022-12-24T14:37:13.913Z,56.46
2022-12-24T14:39:47.892Z,56.52
2022-12-24T14:42:35.980Z,56.26
2022-12-24T14:45:18.147Z,56.70
2022-12-24T14:47:56.384Z,56.86
2022-12-24T14:50:46.045Z,56.98
2022-12-24T14:53:34.705Z,56.94
2022-12-24T14:56:14.454Z,57.02
2022-12-24T14:58:44.158Z,57.14
2022-12-24T15:01:25.139Z,57.17
2022-12-24T15:04:04.471Z,57.24
2022-12-24T15:06:37.808Z,57.29
2022-12-24T15:09:05.818Z,57.20
2022-12-24T15:11:32.870Z,57.33
2022-12-24T15:14:00.634Z,57.84
2022-12-24T15:16:34.172Z,57.59
2022-12-24T15:19:06.045Z,58.01
2022-12-24T15:21:41.098Z,58.40
2022-12-24T15:24:25.876Z,58.23
2022-12-24T15:26:52.958Z,58.25
2022-12-24T15:29:24.663Z,58.24
2022-12-24T15:31:57.944Z,58.35
2022-12-24T15:34:30.242Z,58.52
2022-12-24T15:37:12.319Z,58.36
2022-12-24T15:39:40.853Z,58.84
2022-12-24T15:42:14.648Z,58.78
2022-12-24T15:44:49.494Z,58.88
2022-12-24T15:47:21.442Z,58.79
2022-12-24T15:49:52.371Z,59.00
2022-12-24T15:52:24.855Z,58.91
2022-12-24T15:54:57.797Z,59.10
2022-12-24T15:57:30.823Z,59.04
2022-12-24T16:00:00.300Z,59.48
2022-12-24T16:02:39.643Z,59.18
2022-12-24T16:05:35.644Z,59.30
2022-12-24T16:08:26.103Z,59.12
2022-12-24T16:11:11.570Z,59.27
2022-12-24T16:13:41.301Z,59.12
2022-12-24T16:16:12.595Z,58.78
2022-12-24T16:18:51.533Z,58.38
2022-12-24T16:21:24.195Z,57.97
2022-12-24T16:23:55.797Z,57.55
2022-12-24T16:26:23.061Z,57.19
2022-12-24T16:28:50.118Z,57.21
2022-12-24T16:31:19.484Z,56.92
2022-12-24T16:33:46.941Z,56.93
2022-12-24T16:36:14.524Z,56.70
2022-12-24T16:38:59.863Z,56.92
2022-12-24T16:41:28.098Z,56.93
2022-12-24T16:43:55.026Z,56.79
2022-12-24T16:46:21.983Z,56.98
2022-12-24T16:48:49.528Z,57.07
2022-12-24T16:51:16.467Z,57.18
2022-12-24T16:53:43.378Z,57.14
2022-12-24T16:56:10.257Z,57.05
2022-12-24T16:58:38.603Z,56.96
2022-12-24T17:01:09.726Z,57.14
2022-12-24T17:03:37.254Z,57.24
2022-12-24T17:06:06.352Z,57.21
2022-12-24T17:08:33.298Z,57.18
2022-12-24T17:11:00.231Z,56.99
2022-12-24T17:13:27.132Z,57.24
2022-12-24T17:15:55.379Z,57.06
2022-12-24T17:18:22.355Z,57.07
2022-12-24T17:20:58.525Z,57.08
2022-12-24T17:23:25.749Z,57.26
2022-12-24T17:25:52.709Z,56.75
2022-12-24T17:28:19.624Z,56.90
2022-12-24T17:30:46.598Z,56.89
2022-12-24T17:33:15.238Z,56.68
2022-12-24T17:35:43.698Z,56.49
2022-12-24T17:38:10.561Z,56.59
2022-12-24T17:40:37.452Z,56.62
2022-12-24T17:43:04.432Z,56.43
2022-12-24T17:45:31.441Z,56.53
2022-12-24T17:47:58.322Z,56.51
2022-12-24T17:50:26.687Z,56.47
2022-12-24T17:52:53.608Z,56.02
2022-12-24T17:55:22.435Z,56.00
2022-12-24T17:57:49.328Z,56.03
2022-12-24T18:00:18.093Z,55.98
2022-12-24T18:02:45.128Z,55.96
2022-12-24T18:05:12.067Z,56.13
2022-12-24T18:07:40.338Z,55.99
2022-12-24T18:10:09.345Z,55.70
2022-12-24T18:12:36.256Z,55.79
2022-12-24T18:15:03.453Z,55.64
2022-12-24T18:17:30.370Z,55.76
2022-12-24T18:19:57.505Z,55.70
2022-12-24T18:22:24.457Z,55.69
2022-12-24T18:24:52.950Z,55.62
2022-12-24T18:27:19.865Z,56.06
2022-12-24T18:29:46.752Z,55.75
2022-12-24T18:32:16.759Z,55.89
2022-12-24T18:34:43.763Z,55.99
2022-12-24T18:37:10.674Z,56.00
2022-12-24T18:39:37.575Z,56.17
2022-12-24T18:42:05.919Z,55.91
2022-12-24T18:44:32.807Z,55.94
2022-12-24T18:46:59.870Z,56.17
2022-12-24T18:49:27.116Z,55.98
2022-12-24T18:51:54.027Z,56.34
2022-12-24T18:54:20.981Z,56.19
2022-12-24T18:56:51.310Z,56.42
2022-12-24T18:59:19.539Z,56.58
2022-12-24T19:01:46.765Z,56.50
2022-12-24T19:04:15.010Z,56.38
2022-12-24T19:06:45.836Z,56.46
2022-12-24T19:09:16.214Z,56.67
2022-12-24T19:11:43.087Z,56.53
2022-12-24T19:14:12.986Z,56.29
2022-12-24T19:16:41.483Z,56.41
2022-12-24T19:19:11.292Z,56.55
2022-12-24T19:21:38.295Z,56.86
2022-12-24T19:24:10.254Z,56.87
2022-12-24T19:26:37.852Z,56.69
2022-12-24T19:29:04.853Z,56.89
2022-12-24T19:31:32.449Z,57.00
2022-12-24T19:34:00.825Z,56.94
2022-12-24T19:36:30.506Z,57.34
2022-12-24T19:38:58.967Z,57.58
2022-12-24T19:41:28.666Z,57.72
2022-12-24T19:43:58.188Z,57.95
2022-12-24T19:46:28.416Z,58.19
2022-12-24T19:48:58.185Z,58.52
2022-12-24T19:51:28.708Z,58.75
2022-12-24T19:53:57.120Z,59.16
2022-12-24T19:56:27.527Z,59.42
2022-12-24T19:58:55.470Z,59.68
2022-12-24T20:01:25.501Z,59.65
2022-12-24T20:03:53.898Z,59.68
2022-12-24T20:06:24.091Z,59.83
2022-12-24T20:08:52.697Z,60.01
2022-12-24T20:11:22.126Z,60.18
2022-12-24T20:13:48.996Z,60.61
2022-12-24T20:16:20.953Z,60.24
2022-12-24T20:18:52.077Z,60.21
2022-12-24T20:21:19.362Z,60.34
2022-12-24T20:23:46.675Z,60.45
2022-12-24T20:26:17.869Z,60.84
2022-12-24T20:28:45.814Z,61.01
2022-12-24T20:31:16.180Z,61.13
2022-12-24T20:33:44.303Z,61.30
2022-12-24T20:36:12.373Z,60.96
2022-12-24T20:38:39.929Z,61.12
2022-12-24T20:41:09.540Z,61.09
2022-12-24T20:43:45.015Z,61.47
2022-12-24T20:46:14.414Z,61.35
2022-12-24T20:48:41.754Z,61.92
2022-12-24T20:51:19.351Z,62.06
2022-12-24T20:53:51.133Z,61.55
2022-12-24T20:56:18.617Z,62.03
2022-12-24T20:58:46.943Z,61.74
2022-12-24T21:01:17.863Z,62.31
2022-12-24T21:03:45.456Z,61.93
2022-12-24T21:06:13.705Z,62.04
2022-12-24T21:08:40.573Z,62.64
2022-12-24T21:11:33.047Z,63.12
2022-12-24T21:14:01.992Z,62.67
2022-12-24T21:16:30.894Z,62.92
2022-12-24T21:18:58.043Z,62.80
2022-12-24T21:21:25.210Z,63.23
2022-12-24T21:23:52.583Z,63.03
2022-12-24T21:26:19.634Z,63.01
2022-12-24T21:28:46.655Z,63.15
2022-12-24T21:31:15.577Z,62.86
2022-12-24T21:33:42.934Z,63.37
2022-12-24T21:36:11.808Z,63.74
2022-12-24T21:38:39.107Z,63.74
2022-12-24T21:41:08.928Z,63.50
2022-12-24T21:43:37.444Z,63.52
2022-12-24T21:46:07.879Z,63.45
2022-12-24T21:48:55.467Z,63.61
2022-12-24T21:51:23.822Z,63.57
2022-12-24T21:54:09.689Z,63.30
2022-12-24T21:56:56.281Z,63.65
2022-12-24T21:59:26.850Z,63.74
2022-12-24T22:01:55.121Z,64.03
2022-12-24T22:04:24.063Z,63.96
2022-12-24T22:07:09.761Z,64.17
2022-12-24T22:09:57.056Z,63.80
2022-12-24T22:12:25.039Z,63.92
2022-12-24T22:14:52.020Z,64.25
2022-12-24T22:17:24.726Z,64.41
2022-12-24T22:19:53.959Z,64.69
2022-12-24T22:22:21.630Z,64.47
2022-12-24T22:24:48.618Z,64.96
2022-12-24T22:27:15.565Z,64.95
2022-12-24T22:29:42.498Z,65.04
2022-12-24T22:32:09.592Z,64.57
2022-12-24T22:34:36.635Z,64.62
2022-12-24T22:37:04.872Z,64.62
2022-12-24T22:39:31.833Z,64.40
2022-12-24T22:41:58.713Z,63.64
2022-12-24T22:44:25.786Z,63.76
2022-12-24T22:46:52.816Z,63.61
2022-12-24T22:49:19.778Z,63.63
2022-12-24T22:51:46.709Z,63.48
2022-12-24T22:54:15.841Z,63.71
2022-12-24T22:56:42.998Z,64.21
2022-12-24T22:59:13.767Z,64.19
2022-12-24T23:01:43.747Z,63.94
2022-12-24T23:04:12.425Z,64.82
2022-12-24T23:06:39.952Z,64.67
2022-12-24T23:09:10.541Z,64.65
2022-12-24T23:11:39.431Z,64.85
2022-12-24T23:14:25.178Z,65.01
2022-12-24T23:16:52.125Z,65.57
2022-12-24T23:19:19.025Z,65.11
2022-12-24T23:21:45.930Z,65.30
2022-12-24T23:24:12.965Z,65.02
2022-12-24T23:26:41.228Z,65.05
2022-12-24T23:29:08.135Z,65.70
2022-12-24T23:31:35.238Z,65.03
2022-12-24T23:34:02.232Z,64.83
2022-12-24T23:36:29.751Z,64.68
2022-12-24T23:38:57.520Z,64.60
2022-12-24T23:41:24.511Z,65.01
2022-12-24T23:43:53.177Z,64.89
2022-12-24T23:46:21.126Z,64.26
2022-12-24T23:48:48.785Z,64.90
2022-12-24T23:51:19.839Z,65.20
2022-12-24T23:53:46.783Z,65.04
2022-12-24T23:56:13.887Z,65.06
2022-12-24T23:58:42.470Z,65.06
